This is the latest recevied weather packets stored in our database for station/object OE3AOG. If no packets are shown the sender has not sent any weather packets the latest 1 day(s).
| Time | Temp. | Humidity | Pressure | Rain* | Wind** | Luminosity | Snow |
|---|---|---|---|---|---|---|---|
| 1777979716 | 26.67° C | 26% | 1005.7 hPa | 0 mm | 3.13 m/s, 148° | 677 W/m² | - |
| 1777979124 | 26.67° C | 26% | 1005.8 hPa | 0 mm | 2.68 m/s, 160° | 678 W/m² | - |
| 1777978524 | 26.67° C | 26% | 1005.8 hPa | 0 mm | 2.68 m/s, 155° | 680 W/m² | - |
| 1777977924 | 26.11° C | 33% | 1006.1 hPa | 0 mm | 2.24 m/s, 130° | 685 W/m² | - |
| 1777977316 | 25.56° C | 38% | 1006.1 hPa | 0 mm | 0.89 m/s, 335° | 682 W/m² | - |
| 1777976717 | 25° C | 39% | 1006.4 hPa | 0 mm | 0.45 m/s, 357° | 689 W/m² | - |
| 1777976124 | 24.44° C | 39% | 1006.4 hPa | 0 mm | 0.89 m/s, 327° | 685 W/m² | - |
| 1777975516 | 23.33° C | 41% | 1006.7 hPa | 0 mm | 0.89 m/s, 99° | 686 W/m² | - |
| 1777974924 | 23.33° C | 42% | 1006.9 hPa | 0 mm | 0.89 m/s, 31° | 692 W/m² | - |
| 1777974315 | 22.78° C | 44% | 1007.1 hPa | 0 mm | 0.89 m/s, 74° | 681 W/m² | - |
| 1777973724 | 21.67° C | 45% | 1007.3 hPa | 0 mm | 0.89 m/s, 19° | 661 W/m² | - |
| 1777973116 | 21.11° C | 46% | 1007.4 hPa | 0 mm | 0.89 m/s, 39° | 638 W/m² | - |
| 1777972524 | 20.56° C | 46% | 1007.6 hPa | 0 mm | 1.34 m/s, 30° | 541 W/m² | - |
| 1777971917 | 20° C | 47% | 1007.7 hPa | 0 mm | 1.34 m/s, 50° | 427 W/m² | - |
| 1777971323 | 20° C | 48% | 1007.7 hPa | 0 mm | 0.89 m/s, 59° | 464 W/m² | - |
| 1777970716 | 19.44° C | 48% | 1007.8 hPa | 0 mm | 1.34 m/s, 48° | 535 W/m² | - |
| 1777970125 | 19.44° C | 48% | 1007.9 hPa | 0 mm | 0.89 m/s, 19° | 461 W/m² | - |
| 1777969516 | 20° C | 46% | 1007.9 hPa | 0 mm | 1.34 m/s, 86° | 473 W/m² | - |
| 1777968924 | 20° C | 47% | 1008 hPa | 0 mm | 1.34 m/s, 72° | 483 W/m² | - |
| 1777968316 | 19.44° C | 48% | 1008 hPa | 0 mm | 0.89 m/s, 74° | 533 W/m² | - |
| 1777967724 | 18.89° C | 48% | 1008 hPa | 0 mm | 1.34 m/s, 104° | 507 W/m² | - |
| 1777967124 | 18.89° C | 49% | 1008.1 hPa | 0 mm | 0.89 m/s, 54° | 478 W/m² | - |
| 1777966516 | 17.78° C | 50% | 1008.2 hPa | 0 mm | 0.89 m/s, 111° | 415 W/m² | - |
| 1777965924 | 17.78° C | 50% | 1008.2 hPa | 0 mm | 1.79 m/s, 136° | 405 W/m² | - |
| 1777965315 | 17.22° C | 50% | 1008.2 hPa | 0 mm | 1.79 m/s, 124° | 400 W/m² | - |
* Rain latest hour (hover to see other rain measurements)
** Current wind speed in m/s (hover to see current wind gust speed)